createdAt,value
2019-04-20T00:01:37.269Z,99.90
2019-04-20T00:04:09.904Z,99.90
2019-04-20T00:06:43.838Z,99.90
2019-04-20T00:09:18.271Z,99.90
2019-04-20T00:11:51.731Z,99.90
2019-04-20T00:14:17.227Z,99.90
2019-04-20T00:16:41.997Z,99.90
2019-04-20T00:19:15.846Z,99.90
2019-04-20T00:21:51.999Z,99.90
2019-04-20T00:24:24.799Z,99.90
2019-04-20T00:27:14.610Z,99.90
2019-04-20T00:29:41.107Z,99.90
2019-04-20T00:32:03.068Z,99.90
2019-04-20T00:34:28.286Z,99.90
2019-04-20T00:36:53.913Z,99.90
2019-04-20T00:39:23.825Z,99.90
2019-04-20T00:42:00.053Z,99.90
2019-04-20T00:44:28.705Z,99.90
2019-04-20T00:47:08.437Z,99.90
2019-04-20T00:49:41.439Z,99.90
2019-04-20T00:52:23.778Z,99.90
2019-04-20T00:54:28.340Z,99.90
2019-04-20T00:57:12.114Z,99.90
2019-04-20T00:59:42.886Z,99.90
2019-04-20T01:02:12.657Z,99.90
2019-04-20T01:04:50.801Z,99.90
2019-04-20T01:07:20.756Z,99.90
2019-04-20T01:10:04.706Z,99.90
2019-04-20T01:12:36.911Z,99.90
2019-04-20T01:15:09.137Z,99.90
2019-04-20T01:17:37.970Z,99.90
2019-04-20T01:20:07.433Z,99.90
2019-04-20T01:22:44.475Z,99.90
2019-04-20T01:25:14.192Z,99.90
2019-04-20T01:27:55.812Z,99.90
2019-04-20T01:30:21.951Z,99.90
2019-04-20T01:32:55.340Z,99.90
2019-04-20T01:35:30.411Z,99.90
2019-04-20T01:38:00.255Z,99.90
2019-04-20T01:40:16.983Z,99.90
2019-04-20T01:42:46.752Z,99.90
2019-04-20T01:45:23.517Z,99.90
2019-04-20T01:47:51.316Z,99.90
2019-04-20T01:50:22.683Z,99.90
2019-04-20T01:52:58.180Z,99.90
2019-04-20T01:55:38.689Z,99.90
2019-04-20T01:58:17.833Z,99.90
2019-04-20T02:00:53.009Z,99.90
2019-04-20T02:03:56.676Z,99.90
2019-04-20T02:06:26.564Z,99.90
2019-04-20T02:08:59.364Z,99.90
2019-04-20T02:11:30.934Z,99.90
2019-04-20T02:14:00.400Z,99.90
2019-04-20T02:16:35.488Z,99.90
2019-04-20T02:19:13.498Z,99.90
2019-04-20T02:21:50.206Z,99.90
2019-04-20T02:24:02.650Z,99.90
2019-04-20T02:26:30.362Z,99.90
2019-04-20T02:29:27.597Z,99.90
2019-04-20T02:32:13.697Z,99.90
2019-04-20T02:34:39.403Z,99.90
2019-04-20T02:37:14.247Z,99.90
2019-04-20T02:39:46.798Z,99.90
2019-04-20T02:47:14.489Z,99.90
2019-04-20T02:54:45.008Z,99.90
2019-04-20T02:57:17.906Z,99.90
2019-04-20T03:02:06.042Z,99.90
2019-04-20T03:04:29.159Z,99.90
2019-04-20T03:07:05.445Z,99.90
2019-04-20T03:09:40.368Z,99.90
2019-04-20T03:12:16.555Z,99.90
2019-04-20T03:14:35.191Z,99.90
2019-04-20T03:17:18.634Z,99.90
2019-04-20T03:19:38.685Z,99.90
2019-04-20T03:22:17.472Z,99.90
2019-04-20T03:24:51.604Z,99.90
2019-04-20T03:27:15.783Z,99.90
2019-04-20T03:30:40.185Z,99.90
2019-04-20T03:33:06.810Z,99.90
2019-04-20T03:35:35.581Z,99.90
2019-04-20T03:37:48.608Z,99.90
2019-04-20T03:40:13.872Z,99.90
2019-04-20T03:42:28.929Z,99.90
2019-04-20T03:45:05.358Z,99.90
2019-04-20T03:47:38.765Z,99.90
2019-04-20T03:50:24.423Z,99.90
2019-04-20T03:53:19.560Z,99.90
2019-04-20T03:56:03.875Z,99.90
2019-04-20T03:58:50.545Z,99.90
2019-04-20T04:02:14.935Z,99.90
2019-04-20T04:04:49.464Z,99.90
2019-04-20T04:07:08.068Z,99.90
2019-04-20T04:09:39.726Z,99.90
2019-04-20T04:12:43.203Z,99.90
2019-04-20T04:15:10.673Z,99.90
2019-04-20T04:17:43.419Z,99.90
2019-04-20T04:20:14.952Z,99.90
2019-04-20T04:23:00.416Z,99.90
2019-04-20T04:25:25.091Z,99.90
2019-04-20T04:28:02.278Z,99.90
2019-04-20T04:30:31.095Z,99.90
2019-04-20T04:33:32.606Z,99.90
2019-04-20T04:35:30.269Z,99.90
2019-04-20T04:38:06.698Z,99.90
2019-04-20T04:40:51.417Z,99.90
2019-04-20T04:43:10.139Z,99.90
2019-04-20T04:45:25.522Z,99.90
2019-04-20T04:47:52.105Z,99.90
2019-04-20T04:50:24.862Z,99.90
2019-04-20T04:53:01.031Z,99.90
2019-04-20T04:55:50.820Z,99.90
2019-04-20T04:58:12.962Z,99.90
2019-04-20T05:00:42.625Z,99.90
2019-04-20T05:03:35.851Z,99.90
2019-04-20T05:06:26.455Z,99.90
2019-04-20T05:08:47.453Z,99.90
2019-04-20T05:11:13.180Z,99.90
2019-04-20T05:13:50.537Z,99.90
2019-04-20T05:16:37.412Z,99.90
2019-04-20T05:19:10.546Z,99.90
2019-04-20T05:21:58.666Z,99.90
2019-04-20T05:24:29.158Z,99.90
2019-04-20T05:27:31.820Z,99.90
2019-04-20T05:29:41.377Z,99.90
2019-04-20T05:32:16.406Z,99.90
2019-04-20T05:35:08.475Z,99.90
2019-04-20T05:37:53.702Z,99.90
2019-04-20T05:40:04.780Z,99.90
2019-04-20T05:42:41.198Z,99.90
2019-04-20T05:45:07.584Z,99.90
2019-04-20T05:47:39.477Z,99.90
2019-04-20T05:50:04.953Z,99.90
2019-04-20T05:52:53.884Z,99.90
2019-04-20T05:55:16.348Z,99.90
2019-04-20T05:57:41.678Z,99.90
2019-04-20T06:00:24.673Z,99.90
2019-04-20T06:02:44.072Z,99.90
2019-04-20T06:05:36.336Z,99.90
2019-04-20T06:07:48.831Z,99.90
2019-04-20T06:10:20.412Z,99.90
2019-04-20T06:12:48.369Z,99.90
2019-04-20T06:15:43.343Z,99.90
2019-04-20T06:18:16.708Z,99.90
2019-04-20T06:21:00.479Z,99.90
2019-04-20T06:23:47.113Z,99.90
2019-04-20T06:26:26.425Z,99.90
2019-04-20T06:28:36.597Z,99.90
2019-04-20T06:31:16.183Z,99.90
2019-04-20T06:36:49.931Z,99.90
2019-04-20T06:39:24.333Z,99.90
2019-04-20T06:42:07.084Z,99.90
2019-04-20T06:44:28.656Z,99.90
2019-04-20T06:49:28.932Z,99.90
2019-04-20T06:52:23.056Z,99.90
2019-04-20T06:55:14.325Z,99.90
2019-04-20T06:57:52.771Z,99.90
2019-04-20T07:00:15.700Z,99.90
2019-04-20T07:05:21.291Z,99.90
2019-04-20T07:12:45.354Z,99.90
2019-04-20T07:15:18.771Z,99.90
2019-04-20T07:18:00.293Z,99.90
2019-04-20T07:20:26.128Z,99.90
2019-04-20T07:25:38.807Z,99.90
2019-04-20T07:28:09.061Z,99.90
2019-04-20T07:30:35.221Z,99.90
2019-04-20T07:33:12.637Z,99.90
2019-04-20T07:35:35.785Z,99.90
2019-04-20T07:40:38.189Z,99.90
2019-04-20T07:43:04.393Z,99.90
2019-04-20T07:45:46.671Z,99.90
2019-04-20T07:50:37.444Z,99.90
2019-04-20T07:53:08.681Z,99.90
2019-04-20T07:55:51.158Z,99.90
2019-04-20T07:58:09.868Z,99.90
2019-04-20T08:00:59.941Z,99.90
2019-04-20T08:03:35.263Z,99.90
2019-04-20T08:06:01.111Z,99.90
2019-04-20T08:08:32.602Z,99.90
2019-04-20T08:11:10.236Z,99.90
2019-04-20T08:13:49.054Z,99.90
2019-04-20T08:16:17.023Z,99.90
2019-04-20T08:18:44.099Z,99.90
2019-04-20T08:21:18.211Z,99.90
2019-04-20T08:23:44.573Z,99.90
2019-04-20T08:26:03.937Z,99.90
2019-04-20T08:28:44.685Z,99.90
2019-04-20T08:31:46.311Z,99.90
2019-04-20T08:34:31.240Z,99.90
2019-04-20T08:36:57.326Z,99.90
2019-04-20T08:39:37.412Z,99.90
2019-04-20T08:42:01.295Z,99.90
2019-04-20T08:44:48.485Z,99.90
2019-04-20T08:49:35.471Z,99.90
2019-04-20T08:52:19.979Z,99.90
2019-04-20T08:54:31.308Z,99.90
2019-04-20T08:56:51.123Z,99.90
2019-04-20T08:59:16.733Z,99.90
2019-04-20T09:01:46.782Z,99.90
2019-04-20T09:04:20.857Z,99.90
2019-04-20T09:07:00.972Z,99.90
2019-04-20T09:09:44.331Z,99.90
2019-04-20T09:12:05.913Z,99.90
2019-04-20T09:14:21.413Z,99.90
2019-04-20T09:17:01.966Z,99.90
2019-04-20T09:19:36.542Z,99.90
2019-04-20T09:22:28.269Z,99.90
2019-04-20T09:25:16.392Z,99.90
2019-04-20T09:27:28.988Z,99.90
2019-04-20T09:30:04.551Z,99.90
2019-04-20T09:32:39.649Z,99.90
2019-04-20T09:35:13.659Z,99.90
2019-04-20T09:37:49.596Z,99.90
2019-04-20T09:40:29.214Z,99.90
2019-04-20T09:42:45.698Z,99.90
2019-04-20T09:45:24.853Z,99.90
2019-04-20T09:47:51.506Z,99.90
2019-04-20T09:50:33.664Z,99.90
2019-04-20T09:53:05.920Z,99.90
2019-04-20T09:55:31.213Z,99.90
2019-04-20T09:58:05.185Z,99.90
2019-04-20T10:00:41.147Z,99.90
2019-04-20T10:02:54.715Z,99.90
2019-04-20T10:05:25.346Z,99.90
2019-04-20T10:07:59.897Z,99.90
2019-04-20T10:10:33.372Z,99.90
2019-04-20T10:12:58.363Z,99.80
2019-04-20T10:15:29.562Z,99.90
2019-04-20T10:17:59.533Z,99.90
2019-04-20T10:20:32.821Z,99.90
2019-04-20T10:23:00.545Z,99.90
2019-04-20T10:25:31.079Z,99.90
2019-04-20T10:28:01.229Z,99.90
2019-04-20T10:30:30.902Z,99.90
2019-04-20T10:33:01.604Z,99.90
2019-04-20T10:35:31.725Z,99.90
2019-04-20T10:38:15.756Z,99.90
2019-04-20T10:40:55.915Z,99.90
2019-04-20T10:43:16.349Z,99.90
2019-04-20T10:45:46.845Z,99.90
2019-04-20T10:48:17.355Z,99.90
2019-04-20T10:50:47.222Z,99.90
2019-04-20T10:53:17.519Z,99.80
2019-04-20T10:55:47.381Z,99.90
2019-04-20T10:58:17.704Z,99.90
2019-04-20T11:00:47.211Z,99.70
2019-04-20T11:03:17.770Z,99.90
2019-04-20T11:05:48.801Z,98.00
2019-04-20T11:08:18.263Z,95.80
2019-04-20T11:10:58.934Z,94.60
2019-04-20T11:13:19.391Z,92.00
2019-04-20T11:15:48.671Z,92.00
2019-04-20T11:18:17.878Z,91.60
2019-04-20T11:20:46.777Z,92.40
2019-04-20T11:23:16.102Z,92.10
2019-04-20T11:25:46.399Z,91.70
2019-04-20T11:28:16.602Z,91.50
2019-04-20T11:30:46.108Z,88.80
2019-04-20T11:33:16.198Z,87.20
2019-04-20T11:35:46.602Z,84.50
2019-04-20T11:38:17.386Z,82.80
2019-04-20T11:40:48.183Z,80.60
2019-04-20T11:43:17.816Z,80.70
2019-04-20T11:45:46.869Z,79.50
2019-04-20T11:48:16.190Z,78.70
2019-04-20T11:50:45.546Z,76.80
2019-04-20T11:53:15.321Z,76.60
2019-04-20T11:55:44.628Z,74.30
2019-04-20T11:58:14.279Z,73.60
2019-04-20T12:00:56.280Z,73.60
2019-04-20T12:03:29.279Z,73.90
2019-04-20T12:05:55.767Z,69.30
2019-04-20T12:08:23.100Z,74.50
2019-04-20T12:10:56.671Z,71.10
2019-04-20T12:13:22.989Z,72.10
2019-04-20T12:15:53.764Z,71.00
2019-04-20T12:18:23.342Z,71.50
2019-04-20T12:20:52.753Z,68.20
2019-04-20T12:23:22.422Z,69.30
2019-04-20T12:25:54.205Z,66.50
2019-04-20T12:28:25.272Z,66.90
2019-04-20T12:30:58.647Z,66.60
2019-04-20T12:33:26.429Z,66.80
2019-04-20T12:35:56.328Z,67.10
2019-04-20T12:38:25.415Z,67.70
2019-04-20T12:40:55.590Z,66.80
2019-04-20T12:43:25.511Z,65.80
2019-04-20T12:45:55.752Z,63.80
2019-04-20T12:48:25.931Z,61.80
2019-04-20T12:50:55.533Z,64.30
2019-04-20T12:53:24.778Z,64.40
2019-04-20T12:55:54.787Z,63.20
2019-04-20T12:58:23.991Z,61.70
2019-04-20T13:00:54.393Z,62.40
2019-04-20T13:03:23.640Z,61.70
2019-04-20T13:05:54.080Z,60.40
2019-04-20T13:08:31.849Z,58.90
2019-04-20T13:10:58.469Z,60.30
2019-04-20T13:13:40.716Z,59.60
2019-04-20T13:16:26.059Z,58.80
2019-04-20T13:18:57.352Z,59.30
2019-04-20T13:21:27.082Z,59.50
2019-04-20T13:23:56.585Z,58.80
2019-04-20T13:26:27.023Z,59.30
2019-04-20T13:28:57.141Z,59.10
2019-04-20T13:31:26.586Z,59.40
2019-04-20T13:33:57.033Z,59.50
2019-04-20T13:36:26.221Z,60.40
2019-04-20T13:38:56.424Z,58.90
2019-04-20T13:41:25.596Z,58.40
2019-04-20T13:43:57.696Z,58.90
2019-04-20T13:46:25.248Z,57.80
2019-04-20T13:48:55.222Z,58.40
2019-04-20T13:51:24.553Z,57.40
2019-04-20T13:53:53.648Z,57.20
2019-04-20T13:56:24.055Z,55.80
2019-04-20T13:59:17.979Z,56.60
2019-04-20T14:02:12.975Z,58.10
2019-04-20T14:05:02.600Z,55.60
2019-04-20T14:07:33.789Z,55.60
2019-04-20T14:10:03.731Z,57.20
2019-04-20T14:12:37.587Z,56.20
2019-04-20T14:15:07.515Z,55.60
2019-04-20T14:17:37.192Z,56.10
2019-04-20T14:20:11.368Z,56.00
2019-04-20T14:22:37.391Z,56.10
2019-04-20T14:25:07.015Z,57.30
2019-04-20T14:27:37.112Z,55.80
2019-04-20T14:30:06.855Z,56.80
2019-04-20T14:32:56.597Z,57.90
2019-04-20T14:35:27.023Z,57.60
2019-04-20T14:37:57.496Z,55.60
2019-04-20T14:40:28.240Z,54.90
2019-04-20T14:42:58.851Z,55.00
2019-04-20T14:45:28.885Z,54.20
2019-04-20T14:47:59.480Z,55.40
2019-04-20T14:50:29.820Z,55.60
2019-04-20T14:52:59.764Z,54.70
2019-04-20T14:55:29.254Z,54.50
2019-04-20T14:58:01.893Z,55.70
2019-04-20T15:00:46.127Z,55.10
2019-04-20T15:03:38.386Z,56.00
2019-04-20T15:06:07.781Z,56.00
2019-04-20T15:08:36.937Z,57.20
2019-04-20T15:11:07.314Z,57.20
2019-04-20T15:13:36.902Z,57.20
2019-04-20T15:16:06.708Z,56.50
2019-04-20T15:18:42.747Z,56.80
2019-04-20T15:21:13.523Z,56.50
2019-04-20T15:23:43.741Z,57.20
2019-04-20T15:26:13.269Z,56.10
2019-04-20T15:28:42.292Z,55.20
2019-04-20T15:31:12.189Z,57.20
2019-04-20T15:33:41.286Z,56.70
2019-04-20T15:36:10.583Z,56.10
2019-04-20T15:38:40.850Z,57.30
2019-04-20T15:41:13.000Z,56.30
2019-04-20T15:43:41.549Z,54.70
2019-04-20T15:46:10.683Z,54.90
2019-04-20T15:48:40.002Z,55.20
2019-04-20T15:51:09.951Z,55.20
2019-04-20T15:53:39.873Z,55.00
2019-04-20T15:56:11.557Z,54.80
2019-04-20T15:58:40.700Z,55.40
2019-04-20T16:01:10.382Z,55.00
2019-04-20T16:03:53.376Z,54.20
2019-04-20T16:06:23.131Z,55.10
2019-04-20T16:08:54.583Z,55.90
2019-04-20T16:11:23.954Z,56.70
2019-04-20T16:13:55.426Z,56.20
2019-04-20T16:16:25.567Z,56.30
2019-04-20T16:18:55.030Z,55.80
2019-04-20T16:21:27.859Z,55.40
2019-04-20T16:24:10.893Z,55.20
2019-04-20T16:26:47.837Z,54.50
2019-04-20T16:29:17.668Z,53.70
2019-04-20T16:31:48.590Z,54.10
2019-04-20T16:34:19.142Z,54.70
2019-04-20T16:36:51.424Z,54.80
2019-04-20T16:39:20.411Z,55.90
2019-04-20T16:41:50.700Z,55.70
2019-04-20T16:44:20.954Z,56.20
2019-04-20T16:46:50.362Z,57.40
2019-04-20T16:49:19.409Z,57.60
2019-04-20T16:51:49.347Z,57.70
2019-04-20T16:54:19.601Z,59.20
2019-04-20T16:56:48.705Z,59.30
2019-04-20T16:59:20.608Z,60.10
2019-04-20T17:01:48.801Z,59.20
2019-04-20T17:04:22.224Z,59.50
2019-04-20T17:07:08.504Z,59.90
2019-04-20T17:09:37.934Z,58.90
2019-04-20T17:12:07.816Z,59.10
2019-04-20T17:14:37.827Z,59.60
2019-04-20T17:17:07.814Z,59.20
2019-04-20T17:19:37.638Z,59.40
2019-04-20T17:22:07.507Z,60.50
2019-04-20T17:24:37.687Z,61.20
2019-04-20T17:27:35.127Z,62.30
2019-04-20T17:30:31.555Z,62.40
2019-04-20T17:33:04.090Z,63.30
2019-04-20T17:35:43.452Z,63.10
2019-04-20T17:38:04.810Z,62.30
2019-04-20T17:40:56.013Z,61.40
2019-04-20T17:43:17.927Z,59.80
2019-04-20T17:45:43.212Z,59.50
2019-04-20T17:48:18.718Z,61.10
2019-04-20T17:51:00.145Z,62.50
2019-04-20T17:53:30.325Z,63.60
2019-04-20T17:55:51.370Z,64.70
2019-04-20T17:58:27.884Z,65.00
2019-04-20T18:01:31.456Z,64.70
2019-04-20T18:04:14.725Z,66.50
2019-04-20T18:06:32.432Z,66.60
2019-04-20T18:08:59.868Z,65.80
2019-04-20T18:11:20.267Z,66.70
2019-04-20T18:13:47.663Z,67.00
2019-04-20T18:16:43.855Z,67.30
2019-04-20T18:19:09.992Z,67.80
2019-04-20T18:21:41.668Z,68.10
2019-04-20T18:24:24.194Z,68.50
2019-04-20T18:26:59.742Z,69.20
2019-04-20T18:29:32.637Z,68.40
2019-04-20T18:31:49.326Z,67.80
2019-04-20T18:34:27.134Z,68.20
2019-04-20T18:36:56.518Z,68.20
2019-04-20T18:39:40.010Z,68.30
2019-04-20T18:42:03.171Z,69.10
2019-04-20T18:44:39.171Z,69.70
2019-04-20T18:47:17.701Z,70.20
2019-04-20T18:49:43.187Z,71.30
2019-04-20T18:52:00.225Z,72.40
2019-04-20T18:54:34.650Z,71.80
2019-04-20T18:57:01.586Z,72.00
2019-04-20T18:59:40.071Z,72.10
2019-04-20T19:02:06.815Z,75.20
2019-04-20T19:04:33.587Z,79.70
2019-04-20T19:07:03.739Z,83.70
2019-04-20T19:09:34.667Z,86.80
2019-04-20T19:12:09.284Z,90.30
2019-04-20T19:15:05.023Z,92.00
2019-04-20T19:17:58.159Z,93.30
2019-04-20T19:20:20.595Z,94.80
2019-04-20T19:22:50.149Z,96.10
2019-04-20T19:25:26.086Z,96.60
2019-04-20T19:27:54.656Z,97.90
2019-04-20T19:30:34.380Z,98.20
2019-04-20T19:33:09.108Z,99.50
2019-04-20T19:35:33.849Z,99.90
2019-04-20T19:38:07.797Z,99.90
2019-04-20T19:40:38.582Z,99.90
2019-04-20T19:43:11.122Z,99.90
2019-04-20T19:45:49.591Z,99.90
2019-04-20T19:48:12.422Z,99.90
2019-04-20T19:50:56.040Z,99.90
2019-04-20T19:53:22.713Z,99.90
2019-04-20T19:55:43.930Z,99.90
2019-04-20T19:58:16.206Z,99.90
2019-04-20T20:00:51.239Z,99.90
2019-04-20T20:03:19.771Z,99.90
2019-04-20T20:05:50.892Z,99.90
2019-04-20T20:08:24.415Z,99.90
2019-04-20T20:10:52.624Z,99.90
2019-04-20T20:13:26.008Z,99.90
2019-04-20T20:16:00.832Z,99.90
2019-04-20T20:18:43.535Z,99.90
2019-04-20T20:21:07.299Z,99.90
2019-04-20T20:23:25.818Z,99.90
2019-04-20T20:25:54.915Z,99.90
2019-04-20T20:28:33.538Z,99.90
2019-04-20T20:31:06.048Z,99.90
2019-04-20T20:33:43.995Z,99.90
2019-04-20T20:36:08.811Z,99.90
2019-04-20T20:38:37.112Z,99.90
2019-04-20T20:41:10.596Z,99.90
2019-04-20T20:43:40.805Z,99.90
2019-04-20T20:46:10.805Z,99.90
2019-04-20T20:48:54.343Z,99.90
2019-04-20T20:51:13.610Z,99.90
2019-04-20T20:53:42.840Z,99.90
2019-04-20T20:56:13.366Z,99.90
2019-04-20T20:58:46.589Z,99.90
2019-04-20T21:01:12.168Z,99.90
2019-04-20T21:03:40.345Z,99.90
2019-04-20T21:06:05.656Z,99.10
2019-04-20T21:08:36.201Z,99.90
2019-04-20T21:11:15.203Z,99.90
2019-04-20T21:13:40.179Z,99.90
2019-04-20T21:16:16.339Z,99.90
2019-04-20T21:18:58.640Z,99.90
2019-04-20T21:21:21.874Z,99.90
2019-04-20T21:23:49.247Z,99.90
2019-04-20T21:26:22.877Z,99.90
2019-04-20T21:28:43.960Z,99.90
2019-04-20T21:31:19.940Z,99.70
2019-04-20T21:33:45.196Z,99.90
2019-04-20T21:36:19.085Z,99.90
2019-04-20T21:38:46.474Z,99.90
2019-04-20T21:41:18.597Z,99.90
2019-04-20T21:43:48.091Z,99.90
2019-04-20T21:46:18.623Z,99.90
2019-04-20T21:49:00.683Z,99.90
2019-04-20T21:51:30.358Z,99.90
2019-04-20T21:53:49.285Z,99.90
2019-04-20T21:56:19.687Z,99.90
2019-04-20T21:58:54.891Z,99.90
2019-04-20T22:01:28.598Z,99.90
2019-04-20T22:03:52.360Z,99.90
2019-04-20T22:06:22.459Z,99.90
2019-04-20T22:08:57.068Z,99.90
2019-04-20T22:11:22.205Z,99.90
2019-04-20T22:13:52.813Z,99.90
2019-04-20T22:16:24.102Z,99.90
2019-04-20T22:19:28.573Z,99.90
2019-04-20T22:21:56.784Z,99.90
2019-04-20T22:24:35.024Z,99.90
2019-04-20T22:26:54.949Z,99.90
2019-04-20T22:29:16.181Z,99.90
2019-04-20T22:31:52.415Z,99.90
2019-04-20T22:34:20.941Z,99.90
2019-04-20T22:36:48.709Z,99.90
2019-04-20T22:39:31.930Z,99.90
2019-04-20T22:42:03.211Z,99.90
2019-04-20T22:44:30.650Z,99.90
2019-04-20T22:47:00.501Z,99.90
2019-04-20T22:49:44.124Z,99.90
2019-04-20T22:52:11.870Z,99.90
2019-04-20T22:54:44.630Z,99.90
2019-04-20T22:57:11.816Z,99.90
2019-04-20T22:59:42.147Z,99.90
2019-04-20T23:02:04.628Z,99.90
2019-04-20T23:04:34.964Z,99.90
2019-04-20T23:07:05.049Z,99.90
2019-04-20T23:09:43.814Z,99.90
2019-04-20T23:12:11.288Z,99.90
2019-04-20T23:14:36.417Z,99.90
2019-04-20T23:17:06.361Z,99.90
2019-04-20T23:19:43.907Z,99.90
2019-04-20T23:22:09.904Z,99.90
2019-04-20T23:24:37.377Z,99.90
2019-04-20T23:27:13.725Z,99.90
2019-04-20T23:29:41.068Z,99.90
2019-04-20T23:32:11.959Z,99.90
2019-04-20T23:34:39.195Z,99.90
2019-04-20T23:37:16.263Z,99.90
2019-04-20T23:39:41.574Z,99.90
2019-04-20T23:42:13.028Z,99.90
2019-04-20T23:44:58.221Z,99.90
2019-04-20T23:47:39.746Z,99.90
2019-04-20T23:50:32.636Z,99.90
2019-04-20T23:53:01.342Z,99.90
2019-04-20T23:55:13.992Z,99.90
2019-04-20T23:57:46.079Z,99.90
